sensor_id;sensor_type;location;lat;lon;timestamp;P1;durP1;ratioP1;P2;durP2;ratioP2
7823;SDS011;3957;48.61947800;9.05303100;2023-02-01T00:00:40;6.77;;;4.20;;
7823;SDS011;3957;48.61947800;9.05303100;2023-02-01T00:01:40;5.93;;;4.40;;
7823;SDS011;3957;48.61947800;9.05303100;2023-02-01T00:02:41;6.43;;;4.63;;
7823;SDS011;3957;48.61947800;9.05303100;2023-02-01T00:03:41;7.13;;;4.47;;
7823;SDS011;3957;48.61947800;9.05303100;2023-02-01T00:04:42;6.47;;;4.65;;
7823;SDS011;3957;48.61947800;9.05303100;2023-02-01T00:05:42;6.47;;;4.43;;
7823;SDS011;3957;48.61947800;9.05303100;2023-02-01T00:06:42;5.90;;;4.30;;
7823;SDS011;3957;48.61947800;9.05303100;2023-02-01T00:07:44;4.70;;;4.03;;
7823;SDS011;3957;48.61947800;9.05303100;2023-02-01T00:08:48;6.85;;;4.20;;
7823;SDS011;3957;48.61947800;9.05303100;2023-02-01T00:09:51;7.07;;;4.55;;
7823;SDS011;3957;48.61947800;9.05303100;2023-02-01T00:11:01;5.83;;;4.07;;
7823;SDS011;3957;48.61947800;9.05303100;2023-02-01T00:12:03;6.00;;;4.18;;
7823;SDS011;3957;48.61947800;9.05303100;2023-02-01T00:13:04;6.00;;;4.47;;
7823;SDS011;3957;48.61947800;9.05303100;2023-02-01T00:14:04;5.23;;;4.23;;
7823;SDS011;3957;48.61947800;9.05303100;2023-02-01T00:15:05;6.53;;;4.00;;
7823;SDS011;3957;48.61947800;9.05303100;2023-02-01T00:16:07;5.68;;;3.85;;
7823;SDS011;3957;48.61947800;9.05303100;2023-02-01T00:17:09;8.90;;;4.07;;
7823;SDS011;3957;48.61947800;9.05303100;2023-02-01T00:18:10;6.03;;;4.47;;
7823;SDS011;3957;48.61947800;9.05303100;2023-02-01T00:19:11;7.40;;;4.80;;
7823;SDS011;3957;48.61947800;9.05303100;2023-02-01T00:20:13;5.15;;;4.00;;
7823;SDS011;3957;48.61947800;9.05303100;2023-02-01T00:21:15;6.10;;;3.70;;
7823;SDS011;3957;48.61947800;9.05303100;2023-02-01T00:22:18;7.25;;;4.53;;
7823;SDS011;3957;48.61947800;9.05303100;2023-02-01T00:23:18;6.20;;;4.10;;
7823;SDS011;3957;48.61947800;9.05303100;2023-02-01T00:24:19;7.28;;;4.20;;
7823;SDS011;3957;48.61947800;9.05303100;2023-02-01T00:25:19;4.83;;;3.83;;
7823;SDS011;3957;48.61947800;9.05303100;2023-02-01T00:26:23;5.68;;;4.30;;
7823;SDS011;3957;48.61947800;9.05303100;2023-02-01T00:27:30;6.72;;;3.78;;
7823;SDS011;3957;48.61947800;9.05303100;2023-02-01T00:28:30;5.13;;;3.72;;
7823;SDS011;3957;48.61947800;9.05303100;2023-02-01T00:29:31;6.25;;;4.15;;
7823;SDS011;3957;48.61947800;9.05303100;2023-02-01T00:30:31;4.40;;;3.57;;
7823;SDS011;3957;48.61947800;9.05303100;2023-02-01T00:31:32;5.60;;;3.80;;
7823;SDS011;3957;48.61947800;9.05303100;2023-02-01T00:32:32;4.35;;;3.63;;
7823;SDS011;3957;48.61947800;9.05303100;2023-02-01T00:33:33;6.23;;;4.03;;
7823;SDS011;3957;48.61947800;9.05303100;2023-02-01T00:34:34;5.65;;;3.83;;
7823;SDS011;3957;48.61947800;9.05303100;2023-02-01T00:35:35;5.73;;;3.80;;
7823;SDS011;3957;48.61947800;9.05303100;2023-02-01T00:36:35;5.50;;;3.70;;
7823;SDS011;3957;48.61947800;9.05303100;2023-02-01T00:37:36;7.22;;;3.55;;
7823;SDS011;3957;48.61947800;9.05303100;2023-02-01T00:38:37;4.60;;;3.50;;
7823;SDS011;3957;48.61947800;9.05303100;2023-02-01T00:39:39;7.07;;;4.88;;
7823;SDS011;3957;48.61947800;9.05303100;2023-02-01T00:40:40;5.53;;;4.17;;
7823;SDS011;3957;48.61947800;9.05303100;2023-02-01T00:41:40;5.63;;;3.70;;
7823;SDS011;3957;48.61947800;9.05303100;2023-02-01T00:42:40;8.13;;;3.60;;
7823;SDS011;3957;48.61947800;9.05303100;2023-02-01T00:43:41;5.50;;;3.70;;
7823;SDS011;3957;48.61947800;9.05303100;2023-02-01T00:44:42;4.22;;;3.60;;
7823;SDS011;3957;48.61947800;9.05303100;2023-02-01T00:45:42;5.33;;;3.40;;
7823;SDS011;3957;48.61947800;9.05303100;2023-02-01T00:46:43;5.80;;;4.10;;
7823;SDS011;3957;48.61947800;9.05303100;2023-02-01T00:47:43;5.13;;;3.47;;
7823;SDS011;3957;48.61947800;9.05303100;2023-02-01T00:48:44;4.87;;;3.53;;
7823;SDS011;3957;48.61947800;9.05303100;2023-02-01T00:49:44;5.43;;;3.75;;
7823;SDS011;3957;48.61947800;9.05303100;2023-02-01T00:50:45;5.05;;;3.78;;
7823;SDS011;3957;48.61947800;9.05303100;2023-02-01T00:51:45;4.53;;;3.40;;
7823;SDS011;3957;48.61947800;9.05303100;2023-02-01T00:52:46;4.72;;;3.30;;
7823;SDS011;3957;48.61947800;9.05303100;2023-02-01T00:53:46;4.87;;;3.63;;
7823;SDS011;3957;48.61947800;9.05303100;2023-02-01T00:54:47;5.70;;;3.97;;
7823;SDS011;3957;48.61947800;9.05303100;2023-02-01T00:55:47;4.63;;;3.40;;
7823;SDS011;3957;48.61947800;9.05303100;2023-02-01T00:56:48;7.90;;;3.72;;
7823;SDS011;3957;48.61947800;9.05303100;2023-02-01T00:57:48;5.13;;;3.73;;
7823;SDS011;3957;48.61947800;9.05303100;2023-02-01T00:58:50;6.47;;;3.70;;
7823;SDS011;3957;48.61947800;9.05303100;2023-02-01T00:59:50;5.03;;;3.27;;
7823;SDS011;3957;48.61947800;9.05303100;2023-02-01T01:02:22;5.45;;;3.97;;
7823;SDS011;3957;48.61947800;9.05303100;2023-02-01T01:03:22;5.80;;;4.00;;
7823;SDS011;3957;48.61947800;9.05303100;2023-02-01T01:04:22;6.07;;;3.80;;
7823;SDS011;3957;48.61947800;9.05303100;2023-02-01T01:05:23;4.10;;;3.25;;
7823;SDS011;3957;48.61947800;9.05303100;2023-02-01T01:06:28;4.22;;;3.40;;
7823;SDS011;3957;48.61947800;9.05303100;2023-02-01T01:07:30;5.80;;;4.05;;
7823;SDS011;3957;48.61947800;9.05303100;2023-02-01T01:08:30;3.85;;;3.38;;
7823;SDS011;3957;48.61947800;9.05303100;2023-02-01T01:09:31;7.20;;;3.67;;
7823;SDS011;3957;48.61947800;9.05303100;2023-02-01T01:10:32;4.60;;;3.80;;
7823;SDS011;3957;48.61947800;9.05303100;2023-02-01T01:11:33;6.63;;;3.90;;
7823;SDS011;3957;48.61947800;9.05303100;2023-02-01T01:12:36;4.50;;;3.60;;
7823;SDS011;3957;48.61947800;9.05303100;2023-02-01T01:13:36;4.93;;;3.40;;
7823;SDS011;3957;48.61947800;9.05303100;2023-02-01T01:14:36;5.93;;;3.60;;
7823;SDS011;3957;48.61947800;9.05303100;2023-02-01T01:15:38;5.13;;;3.67;;
7823;SDS011;3957;48.61947800;9.05303100;2023-02-01T01:16:39;6.68;;;3.65;;
7823;SDS011;3957;48.61947800;9.05303100;2023-02-01T01:17:39;4.80;;;3.70;;
7823;SDS011;3957;48.61947800;9.05303100;2023-02-01T01:18:40;5.57;;;3.90;;
7823;SDS011;3957;48.61947800;9.05303100;2023-02-01T01:19:41;4.82;;;3.42;;
7823;SDS011;3957;48.61947800;9.05303100;2023-02-01T01:20:41;4.10;;;3.40;;
7823;SDS011;3957;48.61947800;9.05303100;2023-02-01T01:21:42;6.27;;;3.70;;
7823;SDS011;3957;48.61947800;9.05303100;2023-02-01T01:22:42;5.57;;;3.72;;
7823;SDS011;3957;48.61947800;9.05303100;2023-02-01T01:23:43;6.87;;;3.77;;
7823;SDS011;3957;48.61947800;9.05303100;2023-02-01T01:24:44;5.15;;;4.00;;
7823;SDS011;3957;48.61947800;9.05303100;2023-02-01T01:25:45;4.95;;;3.45;;
7823;SDS011;3957;48.61947800;9.05303100;2023-02-01T01:26:45;5.13;;;3.70;;
7823;SDS011;3957;48.61947800;9.05303100;2023-02-01T01:27:45;4.47;;;3.60;;
7823;SDS011;3957;48.61947800;9.05303100;2023-02-01T01:28:46;5.50;;;3.90;;
7823;SDS011;3957;48.61947800;9.05303100;2023-02-01T01:29:47;5.70;;;3.73;;
7823;SDS011;3957;48.61947800;9.05303100;2023-02-01T01:30:47;5.90;;;3.47;;
7823;SDS011;3957;48.61947800;9.05303100;2023-02-01T01:31:48;5.13;;;3.67;;
7823;SDS011;3957;48.61947800;9.05303100;2023-02-01T01:32:48;4.30;;;3.50;;
7823;SDS011;3957;48.61947800;9.05303100;2023-02-01T01:33:49;3.97;;;3.28;;
7823;SDS011;3957;48.61947800;9.05303100;2023-02-01T01:34:51;5.07;;;3.67;;
7823;SDS011;3957;48.61947800;9.05303100;2023-02-01T01:35:51;4.60;;;3.60;;
7823;SDS011;3957;48.61947800;9.05303100;2023-02-01T01:36:52;4.15;;;3.30;;
7823;SDS011;3957;48.61947800;9.05303100;2023-02-01T01:37:52;4.10;;;3.33;;
7823;SDS011;3957;48.61947800;9.05303100;2023-02-01T01:38:54;4.70;;;3.65;;
7823;SDS011;3957;48.61947800;9.05303100;2023-02-01T01:39:55;4.78;;;3.75;;
7823;SDS011;3957;48.61947800;9.05303100;2023-02-01T01:40:55;4.72;;;3.45;;
7823;SDS011;3957;48.61947800;9.05303100;2023-02-01T01:41:56;4.90;;;3.77;;
7823;SDS011;3957;48.61947800;9.05303100;2023-02-01T01:42:59;4.85;;;3.50;;
7823;SDS011;3957;48.61947800;9.05303100;2023-02-01T01:44:01;4.78;;;3.65;;
7823;SDS011;3957;48.61947800;9.05303100;2023-02-01T01:45:05;7.25;;;3.42;;
7823;SDS011;3957;48.61947800;9.05303100;2023-02-01T01:46:08;5.07;;;3.70;;
7823;SDS011;3957;48.61947800;9.05303100;2023-02-01T01:47:08;4.73;;;3.03;;
7823;SDS011;3957;48.61947800;9.05303100;2023-02-01T01:48:13;4.90;;;3.63;;
7823;SDS011;3957;48.61947800;9.05303100;2023-02-01T01:49:28;4.18;;;3.50;;
7823;SDS011;3957;48.61947800;9.05303100;2023-02-01T01:50:29;4.00;;;3.30;;
7823;SDS011;3957;48.61947800;9.05303100;2023-02-01T01:51:35;3.42;;;3.13;;
7823;SDS011;3957;48.61947800;9.05303100;2023-02-01T01:52:39;3.75;;;3.30;;
7823;SDS011;3957;48.61947800;9.05303100;2023-02-01T01:53:48;4.35;;;3.60;;
7823;SDS011;3957;48.61947800;9.05303100;2023-02-01T01:54:56;5.40;;;3.63;;
7823;SDS011;3957;48.61947800;9.05303100;2023-02-01T01:55:58;5.35;;;3.42;;
7823;SDS011;3957;48.61947800;9.05303100;2023-02-01T01:57:03;4.80;;;3.10;;
7823;SDS011;3957;48.61947800;9.05303100;2023-02-01T01:58:10;3.97;;;3.28;;
7823;SDS011;3957;48.61947800;9.05303100;2023-02-01T01:59:14;5.20;;;3.38;;
7823;SDS011;3957;48.61947800;9.05303100;2023-02-01T02:00:15;5.27;;;3.67;;
7823;SDS011;3957;48.61947800;9.05303100;2023-02-01T02:01:20;3.53;;;2.97;;
7823;SDS011;3957;48.61947800;9.05303100;2023-02-01T02:02:20;4.20;;;3.30;;
7823;SDS011;3957;48.61947800;9.05303100;2023-02-01T02:03:27;3.70;;;3.07;;
7823;SDS011;3957;48.61947800;9.05303100;2023-02-01T02:04:34;4.32;;;3.10;;
7823;SDS011;3957;48.61947800;9.05303100;2023-02-01T02:05:36;4.95;;;3.10;;
7823;SDS011;3957;48.61947800;9.05303100;2023-02-01T02:06:43;4.20;;;3.50;;
7823;SDS011;3957;48.61947800;9.05303100;2023-02-01T02:07:50;3.45;;;2.90;;
7823;SDS011;3957;48.61947800;9.05303100;2023-02-01T02:08:56;7.30;;;3.20;;
7823;SDS011;3957;48.61947800;9.05303100;2023-02-01T02:09:57;4.17;;;3.17;;
7823;SDS011;3957;48.61947800;9.05303100;2023-02-01T02:10:57;3.47;;;2.92;;
7823;SDS011;3957;48.61947800;9.05303100;2023-02-01T02:12:01;3.72;;;2.92;;
7823;SDS011;3957;48.61947800;9.05303100;2023-02-01T02:13:01;3.20;;;2.90;;
7823;SDS011;3957;48.61947800;9.05303100;2023-02-01T02:14:02;4.78;;;3.05;;
7823;SDS011;3957;48.61947800;9.05303100;2023-02-01T02:15:07;4.57;;;3.10;;
7823;SDS011;3957;48.61947800;9.05303100;2023-02-01T02:17:30;3.80;;;2.88;;
7823;SDS011;3957;48.61947800;9.05303100;2023-02-01T02:19:49;3.50;;;2.83;;
7823;SDS011;3957;48.61947800;9.05303100;2023-02-01T02:30:34;3.03;;;2.67;;
7823;SDS011;3957;48.61947800;9.05303100;2023-02-01T02:33:32;5.57;;;3.00;;
7823;SDS011;3957;48.61947800;9.05303100;2023-02-01T02:40:37;4.60;;;3.20;;
7823;SDS011;3957;48.61947800;9.05303100;2023-02-01T02:42:02;3.00;;;2.53;;
7823;SDS011;3957;48.61947800;9.05303100;2023-02-01T02:43:30;3.47;;;3.17;;
7823;SDS011;3957;48.61947800;9.05303100;2023-02-01T02:46:44;4.88;;;3.47;;
7823;SDS011;3957;48.61947800;9.05303100;2023-02-01T02:52:42;6.10;;;3.58;;
7823;SDS011;3957;48.61947800;9.05303100;2023-02-01T02:54:13;4.88;;;3.50;;
7823;SDS011;3957;48.61947800;9.05303100;2023-02-01T02:55:37;4.23;;;3.03;;
7823;SDS011;3957;48.61947800;9.05303100;2023-02-01T02:56:40;5.63;;;3.15;;
7823;SDS011;3957;48.61947800;9.05303100;2023-02-01T02:58:00;5.07;;;3.22;;
7823;SDS011;3957;48.61947800;9.05303100;2023-02-01T02:59:23;3.83;;;3.17;;
7823;SDS011;3957;48.61947800;9.05303100;2023-02-01T03:00:44;4.70;;;3.63;;
7823;SDS011;3957;48.61947800;9.05303100;2023-02-01T03:02:04;3.55;;;3.20;;
7823;SDS011;3957;48.61947800;9.05303100;2023-02-01T03:03:24;5.18;;;3.15;;
7823;SDS011;3957;48.61947800;9.05303100;2023-02-01T03:04:43;5.63;;;3.53;;
7823;SDS011;3957;48.61947800;9.05303100;2023-02-01T03:05:44;3.95;;;3.30;;
7823;SDS011;3957;48.61947800;9.05303100;2023-02-01T03:06:47;4.40;;;3.47;;
7823;SDS011;3957;48.61947800;9.05303100;2023-02-01T03:07:55;5.87;;;3.57;;
7823;SDS011;3957;48.61947800;9.05303100;2023-02-01T03:09:05;3.83;;;3.33;;
7823;SDS011;3957;48.61947800;9.05303100;2023-02-01T03:10:13;3.50;;;3.00;;
7823;SDS011;3957;48.61947800;9.05303100;2023-02-01T03:11:21;5.13;;;3.70;;
7823;SDS011;3957;48.61947800;9.05303100;2023-02-01T03:12:23;5.22;;;3.80;;
7823;SDS011;3957;48.61947800;9.05303100;2023-02-01T03:13:52;5.97;;;3.65;;
7823;SDS011;3957;48.61947800;9.05303100;2023-02-01T03:14:57;6.82;;;3.92;;
7823;SDS011;3957;48.61947800;9.05303100;2023-02-01T03:17:32;5.22;;;3.38;;
7823;SDS011;3957;48.61947800;9.05303100;2023-02-01T03:20:23;5.95;;;3.70;;
7823;SDS011;3957;48.61947800;9.05303100;2023-02-01T03:22:32;4.70;;;3.60;;
7823;SDS011;3957;48.61947800;9.05303100;2023-02-01T03:23:35;4.72;;;3.75;;
7823;SDS011;3957;48.61947800;9.05303100;2023-02-01T03:24:40;5.28;;;3.53;;
7823;SDS011;3957;48.61947800;9.05303100;2023-02-01T03:25:44;4.57;;;3.70;;
7823;SDS011;3957;48.61947800;9.05303100;2023-02-01T03:26:50;8.57;;;3.45;;
7823;SDS011;3957;48.61947800;9.05303100;2023-02-01T03:27:57;5.70;;;3.42;;
7823;SDS011;3957;48.61947800;9.05303100;2023-02-01T03:29:12;4.40;;;3.60;;
7823;SDS011;3957;48.61947800;9.05303100;2023-02-01T03:31:23;4.10;;;3.70;;
7823;SDS011;3957;48.61947800;9.05303100;2023-02-01T03:32:24;5.35;;;3.55;;
7823;SDS011;3957;48.61947800;9.05303100;2023-02-01T03:33:25;4.60;;;3.65;;
7823;SDS011;3957;48.61947800;9.05303100;2023-02-01T03:34:30;4.55;;;3.17;;
7823;SDS011;3957;48.61947800;9.05303100;2023-02-01T03:35:32;5.35;;;3.40;;
7823;SDS011;3957;48.61947800;9.05303100;2023-02-01T03:36:51;4.93;;;3.78;;
7823;SDS011;3957;48.61947800;9.05303100;2023-02-01T03:38:01;5.22;;;3.55;;
7823;SDS011;3957;48.61947800;9.05303100;2023-02-01T03:39:22;4.63;;;3.40;;
7823;SDS011;3957;48.61947800;9.05303100;2023-02-01T03:40:36;4.43;;;3.85;;
7823;SDS011;3957;48.61947800;9.05303100;2023-02-01T03:41:46;3.80;;;3.33;;
7823;SDS011;3957;48.61947800;9.05303100;2023-02-01T03:42:51;3.90;;;3.47;;
7823;SDS011;3957;48.61947800;9.05303100;2023-02-01T03:44:00;4.20;;;3.78;;
7823;SDS011;3957;48.61947800;9.05303100;2023-02-01T03:46:16;3.72;;;3.13;;
7823;SDS011;3957;48.61947800;9.05303100;2023-02-01T03:47:23;4.63;;;3.70;;
7823;SDS011;3957;48.61947800;9.05303100;2023-02-01T03:48:28;4.15;;;3.33;;
7823;SDS011;3957;48.61947800;9.05303100;2023-02-01T03:49:33;4.40;;;3.28;;
7823;SDS011;3957;48.61947800;9.05303100;2023-02-01T03:50:38;4.55;;;3.47;;
7823;SDS011;3957;48.61947800;9.05303100;2023-02-01T03:51:43;5.03;;;3.50;;
7823;SDS011;3957;48.61947800;9.05303100;2023-02-01T03:52:48;4.68;;;3.30;;
7823;SDS011;3957;48.61947800;9.05303100;2023-02-01T03:54:11;4.10;;;3.45;;
7823;SDS011;3957;48.61947800;9.05303100;2023-02-01T03:55:14;4.70;;;4.20;;
7823;SDS011;3957;48.61947800;9.05303100;2023-02-01T03:56:20;11.77;;;8.13;;
7823;SDS011;3957;48.61947800;9.05303100;2023-02-01T03:57:29;4.55;;;3.53;;
7823;SDS011;3957;48.61947800;9.05303100;2023-02-01T03:58:34;5.55;;;3.45;;
7823;SDS011;3957;48.61947800;9.05303100;2023-02-01T03:59:38;4.25;;;3.53;;
7823;SDS011;3957;48.61947800;9.05303100;2023-02-01T04:00:42;7.13;;;3.88;;
7823;SDS011;3957;48.61947800;9.05303100;2023-02-01T04:01:45;4.15;;;3.53;;
7823;SDS011;3957;48.61947800;9.05303100;2023-02-01T04:02:45;4.22;;;3.50;;
7823;SDS011;3957;48.61947800;9.05303100;2023-02-01T04:03:46;4.10;;;3.27;;
7823;SDS011;3957;48.61947800;9.05303100;2023-02-01T04:04:46;4.18;;;3.50;;
7823;SDS011;3957;48.61947800;9.05303100;2023-02-01T04:05:50;4.03;;;3.20;;
7823;SDS011;3957;48.61947800;9.05303100;2023-02-01T04:06:52;5.90;;;3.50;;
7823;SDS011;3957;48.61947800;9.05303100;2023-02-01T04:07:53;4.53;;;3.47;;
7823;SDS011;3957;48.61947800;9.05303100;2023-02-01T04:08:54;6.70;;;3.38;;
7823;SDS011;3957;48.61947800;9.05303100;2023-02-01T04:09:54;3.43;;;3.03;;
7823;SDS011;3957;48.61947800;9.05303100;2023-02-01T04:10:54;4.57;;;3.40;;
7823;SDS011;3957;48.61947800;9.05303100;2023-02-01T04:11:55;5.40;;;3.47;;
7823;SDS011;3957;48.61947800;9.05303100;2023-02-01T04:12:55;5.40;;;3.43;;
7823;SDS011;3957;48.61947800;9.05303100;2023-02-01T04:13:56;4.43;;;3.63;;
7823;SDS011;3957;48.61947800;9.05303100;2023-02-01T04:14:56;4.90;;;3.57;;
7823;SDS011;3957;48.61947800;9.05303100;2023-02-01T04:15:56;3.37;;;3.07;;
7823;SDS011;3957;48.61947800;9.05303100;2023-02-01T04:16:57;3.73;;;3.30;;
7823;SDS011;3957;48.61947800;9.05303100;2023-02-01T04:17:57;3.93;;;3.30;;
7823;SDS011;3957;48.61947800;9.05303100;2023-02-01T04:18:58;6.27;;;3.47;;
7823;SDS011;3957;48.61947800;9.05303100;2023-02-01T04:19:58;4.32;;;3.30;;
7823;SDS011;3957;48.61947800;9.05303100;2023-02-01T04:20:59;4.68;;;3.03;;
7823;SDS011;3957;48.61947800;9.05303100;2023-02-01T04:22:01;5.22;;;3.20;;
7823;SDS011;3957;48.61947800;9.05303100;2023-02-01T04:23:01;3.97;;;3.17;;
7823;SDS011;3957;48.61947800;9.05303100;2023-02-01T04:24:02;3.65;;;3.20;;
7823;SDS011;3957;48.61947800;9.05303100;2023-02-01T04:25:03;3.42;;;2.90;;
7823;SDS011;3957;48.61947800;9.05303100;2023-02-01T04:26:05;4.28;;;3.08;;
7823;SDS011;3957;48.61947800;9.05303100;2023-02-01T04:27:06;3.97;;;2.97;;
7823;SDS011;3957;48.61947800;9.05303100;2023-02-01T04:28:07;3.22;;;2.90;;
7823;SDS011;3957;48.61947800;9.05303100;2023-02-01T04:29:08;5.25;;;3.22;;
7823;SDS011;3957;48.61947800;9.05303100;2023-02-01T04:30:10;3.92;;;2.95;;
7823;SDS011;3957;48.61947800;9.05303100;2023-02-01T04:31:11;3.38;;;2.70;;
7823;SDS011;3957;48.61947800;9.05303100;2023-02-01T04:32:11;3.67;;;3.17;;
7823;SDS011;3957;48.61947800;9.05303100;2023-02-01T04:33:12;3.20;;;2.90;;
7823;SDS011;3957;48.61947800;9.05303100;2023-02-01T04:34:14;4.00;;;2.85;;
7823;SDS011;3957;48.61947800;9.05303100;2023-02-01T04:35:14;3.85;;;3.05;;
7823;SDS011;3957;48.61947800;9.05303100;2023-02-01T04:36:15;3.07;;;2.70;;
7823;SDS011;3957;48.61947800;9.05303100;2023-02-01T04:37:15;3.23;;;2.90;;
7823;SDS011;3957;48.61947800;9.05303100;2023-02-01T04:38:15;2.97;;;2.67;;
7823;SDS011;3957;48.61947800;9.05303100;2023-02-01T04:39:17;4.25;;;2.72;;
7823;SDS011;3957;48.61947800;9.05303100;2023-02-01T04:40:17;3.05;;;2.75;;
7823;SDS011;3957;48.61947800;9.05303100;2023-02-01T04:41:18;3.37;;;2.80;;
7823;SDS011;3957;48.61947800;9.05303100;2023-02-01T04:42:19;3.42;;;2.85;;
7823;SDS011;3957;48.61947800;9.05303100;2023-02-01T04:43:20;3.78;;;3.08;;
7823;SDS011;3957;48.61947800;9.05303100;2023-02-01T04:44:20;4.47;;;2.77;;
7823;SDS011;3957;48.61947800;9.05303100;2023-02-01T04:45:21;3.55;;;2.92;;
7823;SDS011;3957;48.61947800;9.05303100;2023-02-01T04:46:21;3.50;;;2.92;;
7823;SDS011;3957;48.61947800;9.05303100;2023-02-01T04:47:22;3.77;;;2.80;;
7823;SDS011;3957;48.61947800;9.05303100;2023-02-01T04:48:22;3.42;;;2.83;;
7823;SDS011;3957;48.61947800;9.05303100;2023-02-01T04:49:23;3.95;;;3.10;;
7823;SDS011;3957;48.61947800;9.05303100;2023-02-01T04:50:25;2.92;;;2.60;;
7823;SDS011;3957;48.61947800;9.05303100;2023-02-01T04:51:25;4.70;;;2.83;;
7823;SDS011;3957;48.61947800;9.05303100;2023-02-01T04:52:26;3.23;;;2.70;;
7823;SDS011;3957;48.61947800;9.05303100;2023-02-01T04:53:27;3.10;;;2.80;;
7823;SDS011;3957;48.61947800;9.05303100;2023-02-01T04:54:28;3.38;;;2.40;;
7823;SDS011;3957;48.61947800;9.05303100;2023-02-01T04:55:28;3.63;;;2.30;;
7823;SDS011;3957;48.61947800;9.05303100;2023-02-01T04:56:29;3.67;;;2.57;;
7823;SDS011;3957;48.61947800;9.05303100;2023-02-01T04:57:29;3.60;;;2.23;;
7823;SDS011;3957;48.61947800;9.05303100;2023-02-01T04:58:30;3.38;;;2.35;;
7823;SDS011;3957;48.61947800;9.05303100;2023-02-01T04:59:30;3.07;;;2.60;;
7823;SDS011;3957;48.61947800;9.05303100;2023-02-01T05:00:30;2.90;;;2.60;;
7823;SDS011;3957;48.61947800;9.05303100;2023-02-01T05:01:31;3.40;;;2.43;;
7823;SDS011;3957;48.61947800;9.05303100;2023-02-01T05:02:32;2.65;;;2.45;;
7823;SDS011;3957;48.61947800;9.05303100;2023-02-01T05:03:33;3.22;;;2.40;;
7823;SDS011;3957;48.61947800;9.05303100;2023-02-01T05:04:34;4.47;;;2.50;;
7823;SDS011;3957;48.61947800;9.05303100;2023-02-01T05:05:34;2.73;;;2.40;;
7823;SDS011;3957;48.61947800;9.05303100;2023-02-01T05:06:34;2.93;;;2.40;;
7823;SDS011;3957;48.61947800;9.05303100;2023-02-01T05:07:35;3.93;;;2.40;;
7823;SDS011;3957;48.61947800;9.05303100;2023-02-01T05:08:35;3.10;;;2.10;;
7823;SDS011;3957;48.61947800;9.05303100;2023-02-01T05:09:36;3.43;;;2.70;;
7823;SDS011;3957;48.61947800;9.05303100;2023-02-01T05:10:36;3.08;;;2.13;;
7823;SDS011;3957;48.61947800;9.05303100;2023-02-01T05:11:36;2.43;;;1.97;;
7823;SDS011;3957;48.61947800;9.05303100;2023-02-01T05:12:56;3.20;;;2.35;;
7823;SDS011;3957;48.61947800;9.05303100;2023-02-01T05:14:15;5.53;;;2.63;;
7823;SDS011;3957;48.61947800;9.05303100;2023-02-01T05:15:15;2.97;;;2.20;;
7823;SDS011;3957;48.61947800;9.05303100;2023-02-01T05:16:15;2.95;;;2.20;;
7823;SDS011;3957;48.61947800;9.05303100;2023-02-01T05:17:16;4.60;;;2.20;;
7823;SDS011;3957;48.61947800;9.05303100;2023-02-01T05:18:17;4.30;;;2.40;;
7823;SDS011;3957;48.61947800;9.05303100;2023-02-01T05:19:17;2.43;;;2.20;;
7823;SDS011;3957;48.61947800;9.05303100;2023-02-01T05:20:17;4.07;;;2.63;;
7823;SDS011;3957;48.61947800;9.05303100;2023-02-01T05:21:18;2.95;;;2.22;;
7823;SDS011;3957;48.61947800;9.05303100;2023-02-01T05:22:18;2.73;;;2.20;;
7823;SDS011;3957;48.61947800;9.05303100;2023-02-01T05:23:19;3.00;;;2.60;;
7823;SDS011;3957;48.61947800;9.05303100;2023-02-01T05:24:19;2.65;;;2.38;;
7823;SDS011;3957;48.61947800;9.05303100;2023-02-01T05:25:20;2.50;;;2.30;;
7823;SDS011;3957;48.61947800;9.05303100;2023-02-01T05:26:21;3.67;;;2.67;;
7823;SDS011;3957;48.61947800;9.05303100;2023-02-01T05:27:21;2.80;;;2.50;;
7823;SDS011;3957;48.61947800;9.05303100;2023-02-01T05:28:21;4.30;;;2.20;;
7823;SDS011;3957;48.61947800;9.05303100;2023-02-01T05:29:22;3.03;;;2.23;;
7823;SDS011;3957;48.61947800;9.05303100;2023-02-01T05:30:22;2.97;;;2.60;;
7823;SDS011;3957;48.61947800;9.05303100;2023-02-01T05:31:23;2.93;;;2.33;;
7823;SDS011;3957;48.61947800;9.05303100;2023-02-01T05:32:23;4.07;;;2.50;;
7823;SDS011;3957;48.61947800;9.05303100;2023-02-01T05:33:23;2.53;;;2.33;;
7823;SDS011;3957;48.61947800;9.05303100;2023-02-01T05:34:24;2.55;;;2.35;;
7823;SDS011;3957;48.61947800;9.05303100;2023-02-01T05:35:24;2.60;;;2.20;;
7823;SDS011;3957;48.61947800;9.05303100;2023-02-01T05:36:25;2.72;;;2.30;;
7823;SDS011;3957;48.61947800;9.05303100;2023-02-01T05:37:25;2.50;;;2.30;;
7823;SDS011;3957;48.61947800;9.05303100;2023-02-01T05:38:26;2.73;;;2.37;;
7823;SDS011;3957;48.61947800;9.05303100;2023-02-01T05:39:26;2.65;;;2.05;;
7823;SDS011;3957;48.61947800;9.05303100;2023-02-01T05:40:26;2.63;;;2.20;;
7823;SDS011;3957;48.61947800;9.05303100;2023-02-01T05:41:27;2.60;;;2.10;;
7823;SDS011;3957;48.61947800;9.05303100;2023-02-01T05:42:27;3.27;;;2.20;;
7823;SDS011;3957;48.61947800;9.05303100;2023-02-01T05:43:27;2.75;;;2.33;;
7823;SDS011;3957;48.61947800;9.05303100;2023-02-01T05:44:28;2.33;;;2.13;;
7823;SDS011;3957;48.61947800;9.05303100;2023-02-01T05:45:28;2.47;;;2.22;;
7823;SDS011;3957;48.61947800;9.05303100;2023-02-01T05:46:29;3.10;;;2.40;;
7823;SDS011;3957;48.61947800;9.05303100;2023-02-01T05:47:29;3.63;;;2.60;;
7823;SDS011;3957;48.61947800;9.05303100;2023-02-01T05:48:29;2.42;;;2.20;;
7823;SDS011;3957;48.61947800;9.05303100;2023-02-01T05:49:30;2.67;;;2.07;;
7823;SDS011;3957;48.61947800;9.05303100;2023-02-01T05:50:30;2.80;;;2.42;;
7823;SDS011;3957;48.61947800;9.05303100;2023-02-01T05:51:31;4.33;;;2.13;;
7823;SDS011;3957;48.61947800;9.05303100;2023-02-01T05:52:31;3.70;;;2.27;;
7823;SDS011;3957;48.61947800;9.05303100;2023-02-01T05:53:32;3.13;;;2.30;;
7823;SDS011;3957;48.61947800;9.05303100;2023-02-01T05:54:32;2.40;;;2.20;;
7823;SDS011;3957;48.61947800;9.05303100;2023-02-01T05:55:33;2.87;;;2.20;;
7823;SDS011;3957;48.61947800;9.05303100;2023-02-01T05:56:33;3.37;;;2.27;;
7823;SDS011;3957;48.61947800;9.05303100;2023-02-01T05:57:34;3.13;;;2.43;;
7823;SDS011;3957;48.61947800;9.05303100;2023-02-01T05:58:34;3.43;;;2.20;;
7823;SDS011;3957;48.61947800;9.05303100;2023-02-01T05:59:34;3.27;;;2.10;;
7823;SDS011;3957;48.61947800;9.05303100;2023-02-01T06:00:37;2.88;;;2.40;;
7823;SDS011;3957;48.61947800;9.05303100;2023-02-01T06:01:37;3.50;;;2.70;;
7823;SDS011;3957;48.61947800;9.05303100;2023-02-01T06:02:38;4.07;;;2.20;;
7823;SDS011;3957;48.61947800;9.05303100;2023-02-01T06:03:38;3.37;;;2.20;;
7823;SDS011;3957;48.61947800;9.05303100;2023-02-01T06:04:39;2.88;;;2.30;;
7823;SDS011;3957;48.61947800;9.05303100;2023-02-01T06:05:39;3.20;;;2.33;;
7823;SDS011;3957;48.61947800;9.05303100;2023-02-01T06:06:39;3.07;;;2.20;;
7823;SDS011;3957;48.61947800;9.05303100;2023-02-01T06:07:40;2.53;;;2.10;;
7823;SDS011;3957;48.61947800;9.05303100;2023-02-01T06:08:41;2.43;;;2.20;;
7823;SDS011;3957;48.61947800;9.05303100;2023-02-01T06:09:41;2.30;;;2.00;;
7823;SDS011;3957;48.61947800;9.05303100;2023-02-01T06:10:41;2.73;;;2.30;;
7823;SDS011;3957;48.61947800;9.05303100;2023-02-01T06:11:42;3.10;;;2.40;;
7823;SDS011;3957;48.61947800;9.05303100;2023-02-01T06:12:42;2.97;;;2.00;;
7823;SDS011;3957;48.61947800;9.05303100;2023-02-01T06:13:44;3.75;;;2.45;;